createdAt,value
2019-05-30T00:00:35.384Z,17.27
2019-05-30T00:01:38.091Z,17.10
2019-05-30T00:02:41.180Z,17.35
2019-05-30T00:03:43.875Z,17.30
2019-05-30T00:04:46.989Z,17.28
2019-05-30T00:05:49.715Z,17.39
2019-05-30T00:06:56.925Z,16.78
2019-05-30T00:07:58.537Z,16.84
2019-05-30T00:09:06.647Z,16.93
2019-05-30T00:10:09.086Z,17.37
2019-05-30T00:11:12.213Z,17.54
2019-05-30T00:12:14.848Z,17.49
2019-05-30T00:13:17.263Z,17.74
2019-05-30T00:14:19.816Z,17.62
2019-05-30T00:15:22.336Z,17.92
2019-05-30T00:16:24.883Z,17.85
2019-05-30T00:17:27.343Z,17.50
2019-05-30T00:18:30.057Z,17.65
2019-05-30T00:19:33.952Z,17.72
2019-05-30T00:20:36.629Z,17.84
2019-05-30T00:21:39.013Z,17.90
2019-05-30T00:22:41.445Z,18.06
2019-05-30T00:23:43.858Z,18.09
2019-05-30T00:24:45.724Z,18.11
2019-05-30T00:25:48.270Z,17.88
2019-05-30T00:26:52.795Z,18.02
2019-05-30T00:27:55.278Z,18.01
2019-05-30T00:28:58.325Z,18.11
2019-05-30T00:30:01.470Z,18.16
2019-05-30T00:31:04.695Z,18.04
2019-05-30T00:32:07.845Z,18.10
2019-05-30T00:33:10.383Z,18.13
2019-05-30T00:34:12.761Z,18.12
2019-05-30T00:35:16.680Z,18.02
2019-05-30T00:36:20.851Z,17.81
2019-05-30T00:37:24.715Z,17.51
2019-05-30T00:38:27.534Z,17.11
2019-05-30T00:39:30.629Z,17.25
2019-05-30T00:40:33.380Z,17.07
2019-05-30T00:41:35.856Z,17.29
2019-05-30T00:42:37.690Z,16.62
2019-05-30T00:43:40.826Z,16.69
2019-05-30T00:44:43.229Z,16.57
2019-05-30T00:45:45.031Z,16.59
2019-05-30T00:46:47.577Z,16.81
2019-05-30T00:47:51.986Z,16.51
2019-05-30T00:48:53.785Z,16.35
2019-05-30T00:49:58.104Z,16.73
2019-05-30T00:51:00.493Z,16.65
2019-05-30T00:52:05.079Z,16.65
2019-05-30T00:53:07.746Z,16.04
2019-05-30T00:54:10.157Z,16.23
2019-05-30T00:55:12.952Z,15.87
2019-05-30T00:56:15.408Z,15.63
2019-05-30T00:57:17.858Z,15.31
2019-05-30T00:58:19.820Z,15.59
2019-05-30T00:59:22.276Z,15.76
2019-05-30T01:00:41.940Z,15.67
2019-05-30T01:01:29.874Z,15.70
2019-05-30T01:02:32.193Z,16.10
2019-05-30T01:03:34.951Z,16.35
2019-05-30T01:04:37.395Z,16.36
2019-05-30T01:05:40.420Z,15.79
2019-05-30T01:06:42.862Z,16.30
2019-05-30T01:07:45.371Z,16.23
2019-05-30T01:08:47.676Z,16.45
2019-05-30T01:09:49.727Z,16.57
2019-05-30T01:10:51.997Z,15.57
2019-05-30T01:11:55.187Z,15.95
2019-05-30T01:12:59.920Z,15.88
2019-05-30T01:14:05.326Z,15.54
2019-05-30T01:15:09.603Z,15.11
2019-05-30T01:16:11.460Z,14.94
2019-05-30T01:17:14.396Z,14.72
2019-05-30T01:18:16.671Z,15.07
2019-05-30T01:19:19.533Z,15.34
2019-05-30T01:20:22.251Z,15.64
2019-05-30T01:21:24.077Z,15.42
2019-05-30T01:22:26.480Z,15.20
2019-05-30T01:23:29.005Z,15.27
2019-05-30T01:24:31.947Z,15.64
2019-05-30T01:25:34.608Z,15.67
2019-05-30T01:26:37.348Z,15.46
2019-05-30T01:27:39.633Z,15.34
2019-05-30T01:28:41.919Z,15.48
2019-05-30T01:29:44.501Z,15.71
2019-05-30T01:30:59.639Z,15.87
2019-05-30T01:31:51.321Z,15.68
2019-05-30T01:32:53.759Z,16.05
2019-05-30T01:33:55.434Z,16.09
2019-05-30T01:34:59.777Z,15.73
2019-05-30T01:36:05.818Z,15.79
2019-05-30T01:37:07.897Z,15.89
2019-05-30T01:38:10.445Z,15.98
2019-05-30T01:39:12.230Z,15.86
2019-05-30T01:40:14.231Z,15.65
2019-05-30T01:41:17.691Z,15.99
2019-05-30T01:42:20.013Z,16.14
2019-05-30T01:43:23.536Z,16.15
2019-05-30T01:44:25.877Z,16.24
2019-05-30T01:45:28.380Z,16.15
2019-05-30T01:46:31.022Z,15.98
2019-05-30T01:47:33.385Z,16.48
2019-05-30T01:48:35.928Z,16.46
2019-05-30T01:49:39.685Z,16.02
2019-05-30T01:50:43.635Z,16.09
2019-05-30T01:51:45.981Z,15.41
2019-05-30T01:52:48.835Z,14.77
2019-05-30T01:53:52.556Z,14.82
2019-05-30T01:54:54.349Z,15.07
2019-05-30T01:55:58.585Z,15.30
2019-05-30T01:57:01.134Z,15.29
2019-05-30T01:58:05.085Z,15.62
2019-05-30T01:59:08.789Z,16.03
2019-05-30T02:00:21.129Z,15.66
2019-05-30T02:01:25.183Z,15.98
2019-05-30T02:02:24.071Z,15.99
2019-05-30T02:03:26.606Z,15.88
2019-05-30T02:04:29.296Z,16.05
2019-05-30T02:05:32.103Z,15.47
2019-05-30T02:06:37.916Z,15.92
2019-05-30T02:07:40.974Z,16.06
2019-05-30T02:08:44.784Z,16.23
2019-05-30T02:09:48.087Z,16.44
2019-05-30T02:10:50.780Z,15.74
2019-05-30T02:11:54.384Z,15.97
2019-05-30T02:12:56.557Z,16.02
2019-05-30T02:13:59.542Z,16.08
2019-05-30T02:15:07.776Z,15.83
2019-05-30T02:16:10.169Z,15.71
2019-05-30T02:17:13.057Z,15.42
2019-05-30T02:18:15.341Z,15.73
2019-05-30T02:19:17.941Z,15.35
2019-05-30T02:20:20.961Z,15.51
2019-05-30T02:21:22.695Z,15.02
2019-05-30T02:22:25.301Z,14.87
2019-05-30T02:23:27.858Z,14.93
2019-05-30T02:24:30.315Z,15.45
2019-05-30T02:25:32.702Z,15.59
2019-05-30T02:26:35.731Z,14.98
2019-05-30T02:27:38.209Z,15.10
2019-05-30T02:28:41.499Z,15.02
2019-05-30T02:29:44.214Z,15.17
2019-05-30T02:30:46.723Z,15.08
2019-05-30T02:31:49.960Z,14.17
2019-05-30T02:32:52.290Z,14.49
2019-05-30T02:33:55.966Z,14.71
2019-05-30T02:35:00.805Z,14.11
2019-05-30T02:36:05.766Z,14.47
2019-05-30T02:37:08.540Z,14.42
2019-05-30T02:38:12.044Z,14.69
2019-05-30T02:39:14.809Z,14.84
2019-05-30T02:40:17.462Z,14.94
2019-05-30T02:41:19.682Z,15.23
2019-05-30T02:42:22.050Z,15.47
2019-05-30T02:43:23.820Z,14.86
2019-05-30T02:44:26.134Z,15.19
2019-05-30T02:45:28.713Z,15.08
2019-05-30T02:46:31.281Z,15.22
2019-05-30T02:47:33.800Z,15.20
2019-05-30T02:48:56.859Z,15.28
2019-05-30T02:49:41.008Z,14.68
2019-05-30T02:50:43.343Z,14.39
2019-05-30T02:51:46.149Z,14.83
2019-05-30T02:52:49.001Z,15.09
2019-05-30T02:53:51.861Z,15.41
2019-05-30T02:54:54.941Z,15.42
2019-05-30T02:55:57.391Z,14.89
2019-05-30T02:57:01.309Z,15.15
2019-05-30T02:58:05.592Z,14.01
2019-05-30T02:59:09.198Z,14.69
2019-05-30T03:00:16.732Z,14.67
2019-05-30T03:01:16.991Z,14.16
2019-05-30T03:02:19.802Z,14.26
2019-05-30T03:03:22.181Z,14.24
2019-05-30T03:04:24.700Z,14.26
2019-05-30T03:05:27.013Z,14.31
2019-05-30T03:06:30.925Z,14.40
2019-05-30T03:07:34.132Z,13.69
2019-05-30T03:08:36.540Z,13.37
2019-05-30T03:09:39.346Z,13.47
2019-05-30T03:10:42.799Z,13.44
2019-05-30T03:11:45.569Z,13.43
2019-05-30T03:12:48.973Z,13.60
2019-05-30T03:13:52.995Z,13.75
2019-05-30T03:14:55.707Z,14.08
2019-05-30T03:15:58.114Z,14.36
2019-05-30T03:17:02.562Z,14.17
2019-05-30T03:18:09.427Z,14.39
2019-05-30T03:19:12.766Z,14.03
2019-05-30T03:20:22.893Z,14.19
2019-05-30T03:21:21.900Z,14.10
2019-05-30T03:22:23.731Z,14.09
2019-05-30T03:23:26.635Z,14.37
2019-05-30T03:24:29.193Z,14.31
2019-05-30T03:25:31.179Z,14.07
2019-05-30T03:26:33.865Z,14.47
2019-05-30T03:27:35.794Z,14.68
2019-05-30T03:28:38.058Z,14.74
2019-05-30T03:29:40.615Z,15.03
2019-05-30T03:30:44.496Z,15.08
2019-05-30T03:31:48.262Z,14.47
2019-05-30T03:33:19.117Z,13.95
2019-05-30T03:33:55.346Z,14.34
2019-05-30T03:34:58.316Z,14.16
2019-05-30T03:36:04.866Z,14.25
2019-05-30T03:37:10.629Z,13.90
2019-05-30T03:38:12.804Z,13.68
2019-05-30T03:39:15.536Z,12.85
2019-05-30T03:40:18.627Z,13.42
2019-05-30T03:41:22.184Z,13.86
2019-05-30T03:42:24.740Z,13.93
2019-05-30T03:43:27.065Z,13.55
2019-05-30T03:44:29.571Z,13.93
2019-05-30T03:45:33.811Z,14.00
2019-05-30T03:46:41.901Z,14.06
2019-05-30T03:47:52.813Z,13.91
2019-05-30T03:48:59.282Z,13.57
2019-05-30T03:50:05.171Z,13.12
2019-05-30T03:51:12.525Z,13.66
2019-05-30T03:52:17.535Z,13.60
2019-05-30T03:53:20.907Z,13.54
2019-05-30T03:54:24.937Z,13.62
2019-05-30T03:55:30.537Z,13.62
2019-05-30T03:56:43.122Z,13.59
2019-05-30T03:58:21.577Z,13.79
2019-05-30T03:59:31.148Z,13.73
2019-05-30T04:00:44.681Z,13.52
2019-05-30T04:02:19.019Z,13.82
2019-05-30T04:03:47.943Z,13.80
2019-05-30T04:05:09.374Z,13.37
2019-05-30T04:06:36.426Z,13.13
2019-05-30T04:07:44.891Z,12.51
2019-05-30T04:08:51.678Z,12.79
2019-05-30T04:09:58.865Z,13.32
2019-05-30T04:11:07.667Z,13.50
2019-05-30T04:12:51.120Z,12.84
2019-05-30T04:14:02.139Z,13.07
2019-05-30T04:15:32.922Z,13.57
2019-05-30T04:16:34.944Z,14.10
2019-05-30T04:17:37.336Z,13.85
2019-05-30T04:18:39.194Z,13.70
2019-05-30T04:19:43.070Z,14.05
2019-05-30T04:20:45.450Z,14.44
2019-05-30T04:21:49.354Z,14.73
2019-05-30T04:22:52.273Z,14.29
2019-05-30T04:23:54.618Z,14.21
2019-05-30T04:24:56.339Z,14.37
2019-05-30T04:26:00.867Z,14.60
2019-05-30T04:27:07.761Z,14.80
2019-05-30T04:28:11.943Z,14.87
2019-05-30T04:29:16.635Z,14.56
2019-05-30T04:30:19.820Z,14.58
2019-05-30T04:31:22.224Z,14.35
2019-05-30T04:32:24.569Z,14.80
2019-05-30T04:33:33.107Z,15.05
2019-05-30T04:34:32.491Z,15.19
2019-05-30T04:35:35.190Z,14.76
2019-05-30T04:36:37.591Z,14.16
2019-05-30T04:37:40.030Z,14.55
2019-05-30T04:38:43.042Z,14.80
2019-05-30T04:39:45.814Z,15.00
2019-05-30T04:40:49.227Z,15.07
2019-05-30T04:41:51.597Z,15.27
2019-05-30T04:42:54.345Z,15.53
2019-05-30T04:43:59.350Z,15.32
2019-05-30T04:45:07.437Z,14.54
2019-05-30T04:46:10.788Z,13.95
2019-05-30T04:47:14.370Z,14.01
2019-05-30T04:48:21.139Z,14.36
2019-05-30T04:49:23.463Z,14.78
2019-05-30T04:50:25.843Z,14.52
2019-05-30T04:51:28.735Z,14.02
2019-05-30T04:52:31.487Z,14.14
2019-05-30T04:53:34.231Z,13.67
2019-05-30T04:54:38.708Z,13.78
2019-05-30T04:55:41.169Z,13.98
2019-05-30T04:56:44.021Z,13.35
2019-05-30T04:57:45.799Z,13.45
2019-05-30T04:58:48.114Z,13.92
2019-05-30T04:59:50.568Z,13.98
2019-05-30T05:00:52.348Z,14.33
2019-05-30T05:01:55.076Z,14.61
2019-05-30T05:02:57.488Z,13.66
2019-05-30T05:04:00.400Z,13.50
2019-05-30T05:05:06.511Z,13.12
2019-05-30T05:06:08.867Z,13.41
2019-05-30T05:07:13.584Z,12.97
2019-05-30T05:08:17.759Z,12.67
2019-05-30T05:09:22.156Z,12.70
2019-05-30T05:10:24.720Z,13.51
2019-05-30T05:11:27.265Z,13.51
2019-05-30T05:12:29.362Z,13.40
2019-05-30T05:13:31.677Z,13.58
2019-05-30T05:14:34.390Z,13.62
2019-05-30T05:15:37.188Z,14.06
2019-05-30T05:16:39.875Z,14.30
2019-05-30T05:17:43.288Z,14.67
2019-05-30T05:18:45.184Z,14.69
2019-05-30T05:19:48.435Z,15.01
2019-05-30T05:20:50.752Z,15.30
2019-05-30T05:21:53.352Z,15.52
2019-05-30T05:22:57.007Z,14.95
2019-05-30T05:23:59.374Z,15.40
2019-05-30T05:25:01.530Z,14.75
2019-05-30T05:26:03.814Z,15.35
2019-05-30T05:27:10.502Z,15.44
2019-05-30T05:28:13.638Z,15.30
2019-05-30T05:29:17.929Z,15.37
2019-05-30T05:30:22.427Z,14.33
2019-05-30T05:31:25.452Z,14.39
2019-05-30T05:32:27.931Z,14.83
2019-05-30T05:33:29.922Z,14.98
2019-05-30T05:34:32.315Z,15.07
2019-05-30T05:35:34.623Z,15.37
2019-05-30T05:36:39.363Z,15.29
2019-05-30T05:37:41.034Z,15.55
2019-05-30T05:38:43.748Z,15.71
2019-05-30T05:39:46.204Z,15.90
2019-05-30T05:40:49.046Z,15.95
2019-05-30T05:41:52.293Z,15.84
2019-05-30T05:42:54.070Z,15.57
2019-05-30T05:43:59.208Z,15.22
2019-05-30T05:45:04.955Z,14.89
2019-05-30T05:46:07.246Z,14.67
2019-05-30T05:47:09.653Z,14.25
2019-05-30T05:48:14.326Z,13.92
2019-05-30T05:49:18.400Z,13.30
2019-05-30T05:50:20.882Z,13.79
2019-05-30T05:51:25.161Z,14.20
2019-05-30T05:52:28.884Z,14.65
2019-05-30T05:53:32.360Z,14.36
2019-05-30T05:54:35.162Z,14.62
2019-05-30T05:55:37.443Z,14.60
2019-05-30T05:56:39.929Z,14.37
2019-05-30T05:57:43.025Z,14.16
2019-05-30T05:58:45.615Z,14.14
2019-05-30T05:59:49.019Z,13.86
2019-05-30T06:00:51.466Z,14.13
2019-05-30T06:01:53.815Z,14.05
2019-05-30T06:02:56.126Z,14.36
2019-05-30T06:04:12.124Z,14.03
2019-05-30T06:05:05.269Z,14.43
2019-05-30T06:06:08.199Z,14.41
2019-05-30T06:07:10.701Z,13.52
2019-05-30T06:08:13.093Z,13.93
2019-05-30T06:09:16.433Z,14.48
2019-05-30T06:10:21.880Z,14.88
2019-05-30T06:11:24.647Z,14.68
2019-05-30T06:12:27.934Z,14.56
2019-05-30T06:13:30.872Z,13.89
2019-05-30T06:14:34.199Z,13.93
2019-05-30T06:15:36.556Z,14.02
2019-05-30T06:16:38.604Z,14.51
2019-05-30T06:17:40.928Z,14.19
2019-05-30T06:18:43.481Z,14.40
2019-05-30T06:19:46.984Z,14.16
2019-05-30T06:20:51.034Z,14.56
2019-05-30T06:21:54.534Z,14.83
2019-05-30T06:22:57.332Z,15.09
2019-05-30T06:23:59.740Z,15.26
2019-05-30T06:25:06.183Z,15.17
2019-05-30T06:26:08.417Z,15.40
2019-05-30T06:27:11.580Z,15.56
2019-05-30T06:28:14.046Z,15.67
2019-05-30T06:29:20.018Z,15.91
2019-05-30T06:30:24.372Z,15.56
2019-05-30T06:31:28.624Z,15.49
2019-05-30T06:32:31.925Z,15.15
2019-05-30T06:33:34.334Z,14.54
2019-05-30T06:34:39.657Z,14.73
2019-05-30T06:35:41.439Z,15.00
2019-05-30T06:36:44.065Z,14.51
2019-05-30T06:37:47.041Z,15.11
2019-05-30T06:38:50.078Z,14.99
2019-05-30T06:39:53.315Z,14.68
2019-05-30T06:40:55.776Z,14.65
2019-05-30T06:41:58.748Z,14.81
2019-05-30T06:43:01.095Z,15.25
2019-05-30T06:44:05.733Z,15.22
2019-05-30T06:45:08.715Z,14.28
2019-05-30T06:46:10.760Z,14.07
2019-05-30T06:47:13.496Z,14.20
2019-05-30T06:48:16.614Z,14.48
2019-05-30T06:49:20.602Z,14.85
2019-05-30T06:50:23.169Z,14.99
2019-05-30T06:51:29.088Z,14.76
2019-05-30T06:52:32.122Z,14.63
2019-05-30T06:53:35.199Z,14.24
2019-05-30T06:54:37.031Z,14.36
2019-05-30T06:55:41.382Z,14.59
2019-05-30T06:56:44.795Z,14.84
2019-05-30T06:57:47.716Z,14.85
2019-05-30T06:58:50.300Z,14.76
2019-05-30T06:59:52.821Z,14.86
2019-05-30T07:00:55.437Z,14.53
2019-05-30T07:02:00.543Z,14.73
2019-05-30T07:03:03.661Z,14.59
2019-05-30T07:04:07.529Z,14.35
2019-05-30T07:05:11.407Z,14.37
2019-05-30T07:06:14.876Z,14.40
2019-05-30T07:07:19.475Z,14.36
2019-05-30T07:08:22.690Z,14.62
2019-05-30T07:09:24.948Z,15.07
2019-05-30T07:10:28.775Z,15.12
2019-05-30T07:11:31.647Z,15.05
2019-05-30T07:12:34.029Z,15.15
2019-05-30T07:13:36.327Z,14.84
2019-05-30T07:14:40.160Z,14.53
2019-05-30T07:15:42.627Z,14.59
2019-05-30T07:16:44.885Z,14.90
2019-05-30T07:17:47.611Z,14.64
2019-05-30T07:18:50.550Z,14.76
2019-05-30T07:19:53.321Z,14.56
2019-05-30T07:20:56.144Z,14.94
2019-05-30T07:21:58.910Z,15.04
2019-05-30T07:23:01.846Z,15.19
2019-05-30T07:24:04.525Z,15.43
2019-05-30T07:25:09.248Z,15.55
2019-05-30T07:26:12.116Z,15.66
2019-05-30T07:27:14.981Z,15.71
2019-05-30T07:28:17.631Z,15.78
2019-05-30T07:29:20.544Z,15.90
2019-05-30T07:30:26.110Z,16.06
2019-05-30T07:31:32.223Z,16.27
2019-05-30T07:32:34.773Z,16.50
2019-05-30T07:33:36.628Z,16.12
2019-05-30T07:34:39.275Z,16.01
2019-05-30T07:35:42.026Z,15.61
2019-05-30T07:36:45.200Z,15.60
2019-05-30T07:37:47.629Z,15.71
2019-05-30T07:38:50.225Z,16.10
2019-05-30T07:39:53.273Z,15.80
2019-05-30T07:40:55.952Z,15.67
2019-05-30T07:42:06.201Z,16.03
2019-05-30T07:43:02.973Z,16.34
2019-05-30T07:44:05.681Z,16.52
2019-05-30T07:45:10.364Z,16.79
2019-05-30T07:46:14.729Z,16.98
2019-05-30T07:47:17.435Z,16.99
2019-05-30T07:48:19.580Z,17.21
2019-05-30T07:49:21.775Z,17.34
2019-05-30T07:50:26.192Z,17.45
2019-05-30T07:51:30.615Z,17.47
2019-05-30T07:52:34.786Z,17.47
2019-05-30T07:53:39.068Z,17.70
2019-05-30T07:54:41.703Z,17.73
2019-05-30T07:55:44.332Z,17.91
2019-05-30T07:56:47.332Z,17.88
2019-05-30T07:57:50.083Z,18.03
2019-05-30T07:58:53.237Z,17.41
2019-05-30T07:59:56.081Z,17.26
2019-05-30T08:00:59.308Z,17.00
2019-05-30T08:02:04.709Z,16.34
2019-05-30T08:03:08.851Z,15.36
2019-05-30T08:04:13.258Z,15.92
2019-05-30T08:05:24.096Z,16.04
2019-05-30T08:06:21.461Z,16.18
2019-05-30T08:07:23.798Z,15.74
2019-05-30T08:08:26.218Z,15.83
2019-05-30T08:09:30.792Z,15.98
2019-05-30T08:10:34.027Z,15.72
2019-05-30T08:11:36.841Z,15.35
2019-05-30T08:12:39.438Z,15.17
2019-05-30T08:13:42.485Z,15.48
2019-05-30T08:14:46.033Z,15.49
2019-05-30T08:15:48.917Z,15.56
2019-05-30T08:16:51.610Z,15.47
2019-05-30T08:17:54.901Z,15.77
2019-05-30T08:18:57.380Z,15.20
2019-05-30T08:19:59.975Z,14.97
2019-05-30T08:21:02.981Z,15.12
2019-05-30T08:22:05.406Z,15.33
2019-05-30T08:23:09.884Z,15.14
2019-05-30T08:24:12.875Z,15.34
2019-05-30T08:25:16.424Z,15.42
2019-05-30T08:26:21.571Z,15.36
2019-05-30T08:27:23.883Z,15.49
2019-05-30T08:28:28.678Z,15.51
2019-05-30T08:29:32.187Z,15.82
2019-05-30T08:30:34.633Z,16.05
2019-05-30T08:31:41.923Z,16.12
2019-05-30T08:32:45.767Z,16.43
2019-05-30T08:33:48.243Z,16.01
2019-05-30T08:34:50.899Z,15.85
2019-05-30T08:35:53.574Z,16.25
2019-05-30T08:36:56.467Z,16.14
2019-05-30T08:37:59.404Z,15.98
2019-05-30T08:39:04.398Z,15.78
2019-05-30T08:40:08.442Z,15.61
2019-05-30T08:41:11.328Z,15.63
2019-05-30T08:42:15.133Z,15.64
2019-05-30T08:43:17.721Z,15.75
2019-05-30T08:44:20.849Z,15.70
2019-05-30T08:45:23.147Z,15.44
2019-05-30T08:46:26.790Z,15.38
2019-05-30T08:47:31.846Z,15.63
2019-05-30T08:48:36.118Z,15.99
2019-05-30T08:49:40.387Z,16.05
2019-05-30T08:50:44.974Z,16.28
2019-05-30T08:51:49.287Z,16.42
2019-05-30T08:52:51.435Z,16.25
2019-05-30T08:53:53.692Z,16.15
2019-05-30T08:54:56.087Z,16.03
2019-05-30T08:55:58.356Z,15.91
2019-05-30T08:57:01.115Z,16.26
2019-05-30T08:58:03.430Z,16.57
2019-05-30T08:59:05.903Z,16.60
2019-05-30T09:00:13.355Z,16.53
2019-05-30T09:01:17.799Z,16.67
2019-05-30T09:02:20.572Z,16.58
2019-05-30T09:03:22.944Z,16.53
2019-05-30T09:04:25.419Z,16.35
2019-05-30T09:05:28.328Z,16.05
2019-05-30T09:06:31.146Z,15.85
2019-05-30T09:07:33.710Z,16.30
2019-05-30T09:08:36.052Z,16.36
2019-05-30T09:09:38.455Z,15.61
2019-05-30T09:10:40.970Z,15.77
2019-05-30T09:11:44.488Z,16.04
2019-05-30T09:12:49.589Z,16.41
2019-05-30T09:13:52.061Z,16.74
2019-05-30T09:14:55.087Z,16.83
2019-05-30T09:15:57.501Z,17.02
2019-05-30T09:17:00.603Z,16.95
2019-05-30T09:18:03.621Z,16.65
2019-05-30T09:19:05.435Z,17.01
2019-05-30T09:20:11.731Z,17.16
2019-05-30T09:21:16.131Z,17.25
2019-05-30T09:22:18.943Z,16.90
2019-05-30T09:23:21.547Z,17.29
2019-05-30T09:24:24.728Z,17.59
2019-05-30T09:25:29.394Z,17.77
2019-05-30T09:26:31.792Z,17.91
2019-05-30T09:27:34.233Z,18.04
2019-05-30T09:28:37.738Z,17.66
2019-05-30T09:29:42.858Z,17.21
2019-05-30T09:30:46.491Z,16.94
2019-05-30T09:31:51.167Z,17.19
2019-05-30T09:32:53.494Z,17.03
2019-05-30T09:33:56.126Z,16.89
2019-05-30T09:34:57.923Z,17.05
2019-05-30T09:36:12.886Z,17.25
2019-05-30T09:37:05.229Z,17.55
2019-05-30T09:38:07.841Z,17.82
2019-05-30T09:39:10.809Z,17.56
2019-05-30T09:40:14.198Z,17.38
2019-05-30T09:41:17.602Z,17.60
2019-05-30T09:42:20.854Z,17.49
2019-05-30T09:43:23.221Z,17.57
2019-05-30T09:44:26.174Z,17.04
2019-05-30T09:45:31.564Z,17.15
2019-05-30T09:46:34.320Z,17.10
2019-05-30T09:47:37.198Z,17.12
2019-05-30T09:48:41.901Z,17.20
2019-05-30T09:49:44.943Z,17.50
2019-05-30T09:50:48.744Z,17.53
2019-05-30T09:51:51.346Z,17.61
2019-05-30T09:52:54.001Z,17.72
2019-05-30T09:53:56.532Z,17.95
2019-05-30T09:55:00.561Z,18.11
2019-05-30T09:56:04.154Z,17.85
2019-05-30T09:57:07.022Z,17.45
2019-05-30T09:58:09.789Z,17.69
2019-05-30T09:59:12.214Z,17.86
2019-05-30T10:00:17.801Z,17.52
2019-05-30T10:01:20.432Z,17.46
2019-05-30T10:02:23.168Z,17.69
2019-05-30T10:03:25.294Z,17.81
2019-05-30T10:04:28.873Z,17.98
2019-05-30T10:05:31.841Z,18.16
2019-05-30T10:06:35.935Z,18.37
2019-05-30T10:07:38.517Z,18.48
2019-05-30T10:08:41.037Z,18.70
2019-05-30T10:09:44.515Z,18.52
2019-05-30T10:10:49.156Z,18.71
2019-05-30T10:11:53.504Z,18.82
2019-05-30T10:12:56.294Z,19.02
2019-05-30T10:14:01.036Z,19.10
2019-05-30T10:15:12.376Z,19.27
2019-05-30T10:16:15.046Z,19.36
2019-05-30T10:17:17.401Z,18.86
2019-05-30T10:18:20.133Z,18.76
2019-05-30T10:19:24.282Z,19.05
2019-05-30T10:20:26.952Z,19.19
2019-05-30T10:21:30.384Z,19.39
2019-05-30T10:22:34.765Z,19.47
2019-05-30T10:23:37.031Z,19.61
2019-05-30T10:24:42.922Z,19.59
2019-05-30T10:25:45.968Z,19.67
2019-05-30T10:26:51.128Z,19.85
2019-05-30T10:27:55.010Z,19.90
2019-05-30T10:28:57.633Z,20.02
2019-05-30T10:30:01.316Z,20.05
2019-05-30T10:31:04.403Z,20.13
2019-05-30T10:32:07.498Z,19.99
2019-05-30T10:33:09.875Z,20.05
2019-05-30T10:34:11.927Z,19.74
2019-05-30T10:35:15.247Z,19.59
2019-05-30T10:36:20.103Z,19.06
2019-05-30T10:37:22.299Z,18.75
2019-05-30T10:38:24.924Z,18.61
2019-05-30T10:39:29.241Z,18.79
2019-05-30T10:40:33.282Z,18.90
2019-05-30T10:41:35.709Z,18.63
2019-05-30T10:42:39.153Z,18.89
2019-05-30T10:43:42.382Z,18.95
2019-05-30T10:44:46.240Z,18.63
2019-05-30T10:45:51.158Z,18.64
2019-05-30T10:46:56.535Z,18.94
2019-05-30T10:47:59.186Z,19.16
2019-05-30T10:49:01.260Z,19.45
2019-05-30T10:50:08.283Z,19.59
2019-05-30T10:51:10.731Z,19.47
2019-05-30T10:52:13.552Z,19.74
2019-05-30T10:53:17.674Z,19.83
2019-05-30T10:54:20.711Z,19.84
2019-05-30T10:55:24.480Z,19.64
2019-05-30T10:56:27.558Z,19.82
2019-05-30T10:57:29.862Z,19.45
2019-05-30T10:58:32.442Z,19.67
2019-05-30T10:59:34.751Z,19.86
2019-05-30T11:00:48.905Z,19.86
2019-05-30T11:01:53.010Z,19.76
2019-05-30T11:02:57.110Z,19.43
2019-05-30T11:03:59.780Z,18.92
2019-05-30T11:05:05.779Z,18.88
2019-05-30T11:06:40.898Z,18.82
2019-05-30T11:08:00.104Z,19.22
2019-05-30T11:08:56.925Z,19.57
2019-05-30T11:10:11.079Z,19.86
2019-05-30T11:11:14.186Z,20.08
2019-05-30T11:12:17.365Z,20.29
2019-05-30T11:13:19.551Z,20.43
2019-05-30T11:14:23.332Z,20.51
2019-05-30T11:15:26.300Z,20.55
2019-05-30T11:16:28.722Z,20.64
2019-05-30T11:17:31.150Z,20.76
2019-05-30T11:18:34.300Z,20.81
2019-05-30T11:19:38.889Z,20.72
2019-05-30T11:20:41.323Z,20.85
2019-05-30T11:21:43.978Z,20.77
2019-05-30T11:22:46.438Z,20.70
2019-05-30T11:23:51.415Z,20.87
2019-05-30T11:24:54.911Z,20.87
2019-05-30T11:25:57.299Z,20.57
2019-05-30T11:26:59.725Z,20.71
2019-05-30T11:28:01.765Z,20.84
2019-05-30T11:29:04.811Z,20.88
2019-05-30T11:30:08.634Z,20.81
2019-05-30T11:31:12.368Z,21.02
2019-05-30T11:32:16.491Z,21.03
2019-05-30T11:33:18.812Z,20.89
2019-05-30T11:34:22.064Z,21.01
2019-05-30T11:35:24.712Z,20.99
2019-05-30T11:36:28.408Z,21.04
2019-05-30T11:37:31.009Z,21.05
2019-05-30T11:38:33.498Z,21.08
2019-05-30T11:39:36.082Z,21.08
2019-05-30T11:40:39.767Z,21.20
2019-05-30T11:41:43.813Z,21.30
2019-05-30T11:42:46.431Z,21.37
2019-05-30T11:43:51.450Z,21.38
2019-05-30T11:44:54.125Z,21.23
2019-05-30T11:45:57.792Z,21.34
2019-05-30T11:47:00.912Z,21.39
2019-05-30T11:48:03.774Z,21.40
2019-05-30T11:49:06.831Z,21.47
2019-05-30T11:50:12.946Z,21.47
2019-05-30T11:51:13.917Z,21.53
2019-05-30T11:52:15.896Z,21.56
2019-05-30T11:53:18.911Z,21.53
2019-05-30T11:54:21.636Z,21.50
2019-05-30T11:55:25.092Z,21.06
2019-05-30T11:56:27.424Z,20.65
2019-05-30T11:57:29.999Z,20.14
2019-05-30T11:58:34.455Z,19.78
2019-05-30T11:59:37.193Z,19.43
2019-05-30T12:00:40.041Z,19.28
2019-05-30T12:01:42.463Z,19.45
2019-05-30T12:02:45.344Z,19.62
2019-05-30T12:03:50.478Z,19.84
2019-05-30T12:04:53.184Z,19.96
2019-05-30T12:05:56.593Z,20.15
2019-05-30T12:06:58.943Z,20.19
2019-05-30T12:08:01.740Z,20.34
2019-05-30T12:09:06.061Z,20.39
2019-05-30T12:10:11.714Z,20.59
2019-05-30T12:11:14.459Z,20.78
2019-05-30T12:12:16.544Z,20.83
2019-05-30T12:13:19.469Z,20.87
2019-05-30T12:14:23.019Z,21.04
2019-05-30T12:15:25.592Z,20.96
2019-05-30T12:16:28.986Z,21.03
2019-05-30T12:17:31.905Z,21.16
2019-05-30T12:18:34.333Z,21.31
2019-05-30T12:19:38.603Z,21.35
2019-05-30T12:20:41.567Z,21.24
2019-05-30T12:21:43.343Z,21.29
2019-05-30T12:22:45.192Z,21.34
2019-05-30T12:23:48.008Z,20.98
2019-05-30T12:24:50.119Z,21.16
2019-05-30T12:25:53.962Z,21.10
2019-05-30T12:26:57.999Z,21.25
2019-05-30T12:28:00.365Z,21.35
2019-05-30T12:29:04.433Z,21.44
2019-05-30T12:30:07.806Z,21.46
2019-05-30T12:31:10.193Z,21.47
2019-05-30T12:32:12.845Z,21.60
2019-05-30T12:33:14.550Z,21.48
2019-05-30T12:34:20.570Z,21.54
2019-05-30T12:35:24.270Z,21.51
2019-05-30T12:36:26.906Z,21.43
2019-05-30T12:37:30.051Z,21.46
2019-05-30T12:38:34.597Z,21.48
2019-05-30T12:39:38.220Z,21.59
2019-05-30T12:40:40.852Z,21.60
2019-05-30T12:41:43.199Z,21.59
2019-05-30T12:42:45.088Z,21.64
2019-05-30T12:43:47.799Z,21.69
2019-05-30T12:44:50.355Z,21.72
2019-05-30T12:45:52.895Z,21.73
2019-05-30T12:46:55.630Z,21.63
2019-05-30T12:47:59.229Z,21.51
2019-05-30T12:49:03.517Z,21.38
2019-05-30T12:50:10.623Z,21.48
2019-05-30T12:51:13.134Z,21.57
2019-05-30T12:52:17.321Z,21.66
2019-05-30T12:53:22.022Z,21.63
2019-05-30T12:54:24.942Z,21.63
2019-05-30T12:55:27.466Z,21.32
2019-05-30T12:56:30.402Z,21.45
2019-05-30T12:57:32.852Z,21.53
2019-05-30T12:58:35.612Z,21.48
2019-05-30T12:59:38.346Z,21.60
2019-05-30T13:00:41.448Z,21.61
2019-05-30T13:01:43.914Z,21.61
2019-05-30T13:02:46.330Z,21.40
2019-05-30T13:03:49.537Z,21.39
2019-05-30T13:04:51.922Z,21.28
2019-05-30T13:05:55.088Z,21.52
2019-05-30T13:06:59.255Z,21.18
2019-05-30T13:08:17.955Z,21.01
2019-05-30T13:09:09.490Z,21.09
2019-05-30T13:10:13.030Z,20.81
2019-05-30T13:11:17.128Z,20.97
2019-05-30T13:12:21.146Z,21.00
2019-05-30T13:13:22.914Z,20.82
2019-05-30T13:14:27.301Z,20.65
2019-05-30T13:15:31.200Z,20.56
2019-05-30T13:16:33.342Z,20.46
2019-05-30T13:17:36.231Z,20.28
2019-05-30T13:18:39.503Z,20.24
2019-05-30T13:19:42.833Z,19.85
2019-05-30T13:20:46.131Z,19.90
2019-05-30T13:21:53.658Z,19.83
2019-05-30T13:22:54.679Z,19.93
2019-05-30T13:23:57.767Z,20.17
2019-05-30T13:24:59.757Z,20.36
2019-05-30T13:26:03.707Z,20.56
2019-05-30T13:27:06.546Z,20.72
2019-05-30T13:28:08.816Z,20.84
2019-05-30T13:29:12.327Z,20.87
2019-05-30T13:30:16.522Z,20.85
2019-05-30T13:31:18.703Z,21.02
2019-05-30T13:32:21.376Z,20.96
2019-05-30T13:33:24.284Z,21.06
2019-05-30T13:34:27.075Z,20.99
2019-05-30T13:35:30.734Z,21.07
2019-05-30T13:36:32.435Z,21.10
2019-05-30T13:37:35.113Z,20.97
2019-05-30T13:38:38.061Z,21.03
2019-05-30T13:39:41.307Z,21.04